sensor_id;sensor_type;location;lat;lon;timestamp;P1;durP1;ratioP1;P2;durP2;ratioP2
781;SDS011;374;52.568;13.402;2023-12-20T00:01:48;8.97;;;7.57;;
781;SDS011;374;52.568;13.402;2023-12-20T00:04:14;9.80;;;7.50;;
781;SDS011;374;52.568;13.402;2023-12-20T00:06:39;9.03;;;7.80;;
781;SDS011;374;52.568;13.402;2023-12-20T00:09:05;9.00;;;6.63;;
781;SDS011;374;52.568;13.402;2023-12-20T00:11:30;10.27;;;7.83;;
781;SDS011;374;52.568;13.402;2023-12-20T00:13:56;6.97;;;5.93;;
781;SDS011;374;52.568;13.402;2023-12-20T00:16:21;8.20;;;7.10;;
781;SDS011;374;52.568;13.402;2023-12-20T00:18:47;7.80;;;6.57;;
781;SDS011;374;52.568;13.402;2023-12-20T00:21:12;8.93;;;7.20;;
781;SDS011;374;52.568;13.402;2023-12-20T00:23:38;8.90;;;7.30;;
781;SDS011;374;52.568;13.402;2023-12-20T00:26:03;9.47;;;7.27;;
781;SDS011;374;52.568;13.402;2023-12-20T00:28:28;9.13;;;7.50;;
781;SDS011;374;52.568;13.402;2023-12-20T00:30:54;9.17;;;6.70;;
781;SDS011;374;52.568;13.402;2023-12-20T00:33:20;9.20;;;6.97;;
781;SDS011;374;52.568;13.402;2023-12-20T00:35:45;7.60;;;6.80;;
781;SDS011;374;52.568;13.402;2023-12-20T00:38:11;9.40;;;7.53;;
781;SDS011;374;52.568;13.402;2023-12-20T00:40:36;8.30;;;7.20;;
781;SDS011;374;52.568;13.402;2023-12-20T00:43:02;9.33;;;7.40;;
781;SDS011;374;52.568;13.402;2023-12-20T00:45:28;9.30;;;7.67;;
781;SDS011;374;52.568;13.402;2023-12-20T00:47:53;10.80;;;7.50;;
781;SDS011;374;52.568;13.402;2023-12-20T00:50:19;7.77;;;6.50;;
781;SDS011;374;52.568;13.402;2023-12-20T00:52:46;8.37;;;6.73;;
781;SDS011;374;52.568;13.402;2023-12-20T00:55:12;9.73;;;7.60;;
781;SDS011;374;52.568;13.402;2023-12-20T00:57:37;9.50;;;6.70;;
781;SDS011;374;52.568;13.402;2023-12-20T01:00:03;10.53;;;7.53;;
781;SDS011;374;52.568;13.402;2023-12-20T01:02:29;11.40;;;7.43;;
781;SDS011;374;52.568;13.402;2023-12-20T01:04:55;9.60;;;8.40;;
781;SDS011;374;52.568;13.402;2023-12-20T01:07:20;13.30;;;8.17;;
781;SDS011;374;52.568;13.402;2023-12-20T01:09:46;10.10;;;7.83;;
781;SDS011;374;52.568;13.402;2023-12-20T01:12:11;10.07;;;8.37;;
781;SDS011;374;52.568;13.402;2023-12-20T01:14:39;9.23;;;7.47;;
781;SDS011;374;52.568;13.402;2023-12-20T01:17:05;7.83;;;7.03;;
781;SDS011;374;52.568;13.402;2023-12-20T01:19:30;8.03;;;6.80;;
781;SDS011;374;52.568;13.402;2023-12-20T01:21:56;9.07;;;7.00;;
781;SDS011;374;52.568;13.402;2023-12-20T01:24:21;9.00;;;7.73;;
781;SDS011;374;52.568;13.402;2023-12-20T01:26:47;8.07;;;7.27;;
781;SDS011;374;52.568;13.402;2023-12-20T01:29:12;8.70;;;7.30;;
781;SDS011;374;52.568;13.402;2023-12-20T01:31:39;8.70;;;7.67;;
781;SDS011;374;52.568;13.402;2023-12-20T01:34:05;11.70;;;9.23;;
781;SDS011;374;52.568;13.402;2023-12-20T01:36:31;9.57;;;7.90;;
781;SDS011;374;52.568;13.402;2023-12-20T01:38:56;10.17;;;6.80;;
781;SDS011;374;52.568;13.402;2023-12-20T01:41:21;10.10;;;7.93;;
781;SDS011;374;52.568;13.402;2023-12-20T01:43:47;9.50;;;7.10;;
781;SDS011;374;52.568;13.402;2023-12-20T01:46:12;10.47;;;7.63;;
781;SDS011;374;52.568;13.402;2023-12-20T01:48:39;10.57;;;7.90;;
781;SDS011;374;52.568;13.402;2023-12-20T01:51:05;6.70;;;6.10;;
781;SDS011;374;52.568;13.402;2023-12-20T01:53:30;6.53;;;5.87;;
781;SDS011;374;52.568;13.402;2023-12-20T01:55:57;8.20;;;6.13;;
781;SDS011;374;52.568;13.402;2023-12-20T01:58:24;9.03;;;6.97;;
781;SDS011;374;52.568;13.402;2023-12-20T02:00:50;8.03;;;6.80;;
781;SDS011;374;52.568;13.402;2023-12-20T02:03:16;6.13;;;4.63;;
781;SDS011;374;52.568;13.402;2023-12-20T02:05:43;8.00;;;5.80;;
781;SDS011;374;52.568;13.402;2023-12-20T02:08:09;8.13;;;6.33;;
781;SDS011;374;52.568;13.402;2023-12-20T02:10:34;7.50;;;5.67;;
781;SDS011;374;52.568;13.402;2023-12-20T02:13:00;11.50;;;5.70;;
781;SDS011;374;52.568;13.402;2023-12-20T02:15:25;5.27;;;4.57;;
781;SDS011;374;52.568;13.402;2023-12-20T02:17:51;8.13;;;5.50;;
781;SDS011;374;52.568;13.402;2023-12-20T02:20:17;6.17;;;4.97;;
781;SDS011;374;52.568;13.402;2023-12-20T02:22:42;7.97;;;4.50;;
781;SDS011;374;52.568;13.402;2023-12-20T02:25:08;9.17;;;4.37;;
781;SDS011;374;52.568;13.402;2023-12-20T02:27:36;7.23;;;4.27;;
781;SDS011;374;52.568;13.402;2023-12-20T02:30:02;5.53;;;3.53;;
781;SDS011;374;52.568;13.402;2023-12-20T02:32:28;4.90;;;4.30;;
781;SDS011;374;52.568;13.402;2023-12-20T02:34:54;6.90;;;5.10;;
781;SDS011;374;52.568;13.402;2023-12-20T02:37:20;4.03;;;3.63;;
781;SDS011;374;52.568;13.402;2023-12-20T02:39:45;4.63;;;3.63;;
781;SDS011;374;52.568;13.402;2023-12-20T02:42:11;5.40;;;3.33;;
781;SDS011;374;52.568;13.402;2023-12-20T02:44:39;9.27;;;4.40;;
781;SDS011;374;52.568;13.402;2023-12-20T02:47:05;5.90;;;4.10;;
781;SDS011;374;52.568;13.402;2023-12-20T02:49:30;4.97;;;3.83;;
781;SDS011;374;52.568;13.402;2023-12-20T02:51:56;3.50;;;2.70;;
781;SDS011;374;52.568;13.402;2023-12-20T02:54:21;5.03;;;3.60;;
781;SDS011;374;52.568;13.402;2023-12-20T02:56:47;3.23;;;2.70;;
781;SDS011;374;52.568;13.402;2023-12-20T02:59:13;3.20;;;2.90;;
781;SDS011;374;52.568;13.402;2023-12-20T03:01:45;4.20;;;3.30;;
781;SDS011;374;52.568;13.402;2023-12-20T03:04:11;7.20;;;5.27;;
781;SDS011;374;52.568;13.402;2023-12-20T03:06:37;6.93;;;4.40;;
781;SDS011;374;52.568;13.402;2023-12-20T03:09:03;4.50;;;4.10;;
781;SDS011;374;52.568;13.402;2023-12-20T03:11:29;6.57;;;4.53;;
781;SDS011;374;52.568;13.402;2023-12-20T03:13:55;5.87;;;3.70;;
781;SDS011;374;52.568;13.402;2023-12-20T03:16:21;5.30;;;4.03;;
781;SDS011;374;52.568;13.402;2023-12-20T03:18:46;3.63;;;2.83;;
781;SDS011;374;52.568;13.402;2023-12-20T03:21:12;7.10;;;3.97;;
781;SDS011;374;52.568;13.402;2023-12-20T03:23:37;5.30;;;4.13;;
781;SDS011;374;52.568;13.402;2023-12-20T03:26:03;8.07;;;4.87;;
781;SDS011;374;52.568;13.402;2023-12-20T03:28:31;7.93;;;5.43;;
781;SDS011;374;52.568;13.402;2023-12-20T03:30:56;7.27;;;4.97;;
781;SDS011;374;52.568;13.402;2023-12-20T03:33:22;8.73;;;4.57;;
781;SDS011;374;52.568;13.402;2023-12-20T03:35:47;7.13;;;4.70;;
781;SDS011;374;52.568;13.402;2023-12-20T03:38:13;4.73;;;3.60;;
781;SDS011;374;52.568;13.402;2023-12-20T03:40:38;4.20;;;3.80;;
781;SDS011;374;52.568;13.402;2023-12-20T03:43:04;8.53;;;3.83;;
781;SDS011;374;52.568;13.402;2023-12-20T03:45:29;8.23;;;3.20;;
781;SDS011;374;52.568;13.402;2023-12-20T03:47:55;9.07;;;6.27;;
781;SDS011;374;52.568;13.402;2023-12-20T03:50:22;5.53;;;4.10;;
781;SDS011;374;52.568;13.402;2023-12-20T03:52:47;7.20;;;3.70;;
781;SDS011;374;52.568;13.402;2023-12-20T03:55:13;5.13;;;3.27;;
781;SDS011;374;52.568;13.402;2023-12-20T03:57:38;7.33;;;5.10;;
781;SDS011;374;52.568;13.402;2023-12-20T04:00:04;6.00;;;3.90;;
781;SDS011;374;52.568;13.402;2023-12-20T04:02:40;5.00;;;2.97;;
781;SDS011;374;52.568;13.402;2023-12-20T04:05:07;11.30;;;4.30;;
781;SDS011;374;52.568;13.402;2023-12-20T04:07:33;6.90;;;5.73;;
781;SDS011;374;52.568;13.402;2023-12-20T04:09:59;8.37;;;5.23;;
781;SDS011;374;52.568;13.402;2023-12-20T04:12:24;7.67;;;4.23;;
781;SDS011;374;52.568;13.402;2023-12-20T04:14:51;11.53;;;4.10;;
781;SDS011;374;52.568;13.402;2023-12-20T04:17:16;8.27;;;4.87;;
781;SDS011;374;52.568;13.402;2023-12-20T04:19:42;7.17;;;5.10;;
781;SDS011;374;52.568;13.402;2023-12-20T04:22:08;6.03;;;3.80;;
781;SDS011;374;52.568;13.402;2023-12-20T04:24:33;16.80;;;5.27;;
781;SDS011;374;52.568;13.402;2023-12-20T04:26:59;8.80;;;4.17;;
781;SDS011;374;52.568;13.402;2023-12-20T04:29:25;10.70;;;3.80;;
781;SDS011;374;52.568;13.402;2023-12-20T04:31:50;6.83;;;3.13;;
781;SDS011;374;52.568;13.402;2023-12-20T04:34:19;5.90;;;3.43;;
781;SDS011;374;52.568;13.402;2023-12-20T04:36:44;10.83;;;4.10;;
781;SDS011;374;52.568;13.402;2023-12-20T04:39:11;8.90;;;3.77;;
781;SDS011;374;52.568;13.402;2023-12-20T04:41:38;6.10;;;2.90;;
781;SDS011;374;52.568;13.402;2023-12-20T04:44:03;4.60;;;3.13;;
781;SDS011;374;52.568;13.402;2023-12-20T04:46:29;7.97;;;3.33;;
781;SDS011;374;52.568;13.402;2023-12-20T04:48:54;12.83;;;3.53;;
781;SDS011;374;52.568;13.402;2023-12-20T04:51:20;5.40;;;3.23;;
781;SDS011;374;52.568;13.402;2023-12-20T04:53:45;5.93;;;2.80;;
781;SDS011;374;52.568;13.402;2023-12-20T04:56:11;8.63;;;3.97;;
781;SDS011;374;52.568;13.402;2023-12-20T04:58:36;9.07;;;3.30;;
781;SDS011;374;52.568;13.402;2023-12-20T05:01:02;4.10;;;2.63;;
781;SDS011;374;52.568;13.402;2023-12-20T05:03:29;6.10;;;2.60;;
781;SDS011;374;52.568;13.402;2023-12-20T05:05:55;9.73;;;3.07;;
781;SDS011;374;52.568;13.402;2023-12-20T05:08:20;5.10;;;2.83;;
781;SDS011;374;52.568;13.402;2023-12-20T05:10:46;7.67;;;2.80;;
781;SDS011;374;52.568;13.402;2023-12-20T05:13:11;5.97;;;3.53;;
781;SDS011;374;52.568;13.402;2023-12-20T05:15:36;6.80;;;3.97;;
781;SDS011;374;52.568;13.402;2023-12-20T05:18:02;5.40;;;3.10;;
781;SDS011;374;52.568;13.402;2023-12-20T05:20:28;5.50;;;3.23;;
781;SDS011;374;52.568;13.402;2023-12-20T05:22:53;7.53;;;3.70;;
781;SDS011;374;52.568;13.402;2023-12-20T05:25:19;8.00;;;4.50;;
781;SDS011;374;52.568;13.402;2023-12-20T05:27:44;7.80;;;3.87;;
781;SDS011;374;52.568;13.402;2023-12-20T05:30:10;7.90;;;4.70;;
781;SDS011;374;52.568;13.402;2023-12-20T05:32:36;12.10;;;4.63;;
781;SDS011;374;52.568;13.402;2023-12-20T05:35:01;8.03;;;3.10;;
781;SDS011;374;52.568;13.402;2023-12-20T05:37:28;6.77;;;3.40;;
781;SDS011;374;52.568;13.402;2023-12-20T05:39:53;11.27;;;4.50;;
781;SDS011;374;52.568;13.402;2023-12-20T05:42:19;5.37;;;3.50;;
781;SDS011;374;52.568;13.402;2023-12-20T05:44:44;13.47;;;4.40;;
781;SDS011;374;52.568;13.402;2023-12-20T05:47:10;14.33;;;5.17;;
781;SDS011;374;52.568;13.402;2023-12-20T05:49:36;9.03;;;3.70;;
781;SDS011;374;52.568;13.402;2023-12-20T05:52:01;11.63;;;4.20;;
781;SDS011;374;52.568;13.402;2023-12-20T05:54:27;11.80;;;4.20;;
781;SDS011;374;52.568;13.402;2023-12-20T05:56:52;13.50;;;3.90;;
781;SDS011;374;52.568;13.402;2023-12-20T05:59:17;5.97;;;3.20;;
781;SDS011;374;52.568;13.402;2023-12-20T06:01:43;11.03;;;4.30;;
781;SDS011;374;52.568;13.402;2023-12-20T06:04:08;7.63;;;4.10;;
781;SDS011;374;52.568;13.402;2023-12-20T06:06:34;5.30;;;3.30;;
781;SDS011;374;52.568;13.402;2023-12-20T06:08:59;6.60;;;3.40;;
781;SDS011;374;52.568;13.402;2023-12-20T06:11:25;8.43;;;4.67;;
781;SDS011;374;52.568;13.402;2023-12-20T06:13:51;13.50;;;4.40;;
781;SDS011;374;52.568;13.402;2023-12-20T06:16:20;7.73;;;3.60;;
781;SDS011;374;52.568;13.402;2023-12-20T06:18:45;8.13;;;4.40;;
781;SDS011;374;52.568;13.402;2023-12-20T06:21:11;5.87;;;3.90;;
781;SDS011;374;52.568;13.402;2023-12-20T06:23:38;7.70;;;3.80;;
781;SDS011;374;52.568;13.402;2023-12-20T06:26:03;6.60;;;4.30;;
781;SDS011;374;52.568;13.402;2023-12-20T06:28:29;9.03;;;4.60;;
781;SDS011;374;52.568;13.402;2023-12-20T06:30:54;5.67;;;3.83;;
781;SDS011;374;52.568;13.402;2023-12-20T06:33:21;9.17;;;3.90;;
781;SDS011;374;52.568;13.402;2023-12-20T06:35:47;5.93;;;3.33;;
781;SDS011;374;52.568;13.402;2023-12-20T06:38:13;9.40;;;4.23;;
781;SDS011;374;52.568;13.402;2023-12-20T06:40:38;7.20;;;4.43;;
781;SDS011;374;52.568;13.402;2023-12-20T06:43:04;13.70;;;3.77;;
781;SDS011;374;52.568;13.402;2023-12-20T06:45:31;7.70;;;4.43;;
781;SDS011;374;52.568;13.402;2023-12-20T06:47:57;6.87;;;3.70;;
781;SDS011;374;52.568;13.402;2023-12-20T06:50:25;14.60;;;4.27;;
781;SDS011;374;52.568;13.402;2023-12-20T06:52:51;8.00;;;3.70;;
781;SDS011;374;52.568;13.402;2023-12-20T06:55:17;12.87;;;3.67;;
781;SDS011;374;52.568;13.402;2023-12-20T06:57:43;5.13;;;3.97;;
781;SDS011;374;52.568;13.402;2023-12-20T07:00:08;11.50;;;4.40;;
781;SDS011;374;52.568;13.402;2023-12-20T07:02:36;6.80;;;3.43;;
781;SDS011;374;52.568;13.402;2023-12-20T07:05:02;7.77;;;3.47;;
781;SDS011;374;52.568;13.402;2023-12-20T07:07:27;7.23;;;3.30;;
781;SDS011;374;52.568;13.402;2023-12-20T07:09:53;6.60;;;2.60;;
781;SDS011;374;52.568;13.402;2023-12-20T07:12:18;10.53;;;3.20;;
781;SDS011;374;52.568;13.402;2023-12-20T07:14:47;7.67;;;3.57;;
781;SDS011;374;52.568;13.402;2023-12-20T07:17:12;6.00;;;3.27;;
781;SDS011;374;52.568;13.402;2023-12-20T07:19:40;10.83;;;4.00;;
781;SDS011;374;52.568;13.402;2023-12-20T07:22:06;6.43;;;3.90;;
781;SDS011;374;52.568;13.402;2023-12-20T07:24:32;10.47;;;3.93;;
781;SDS011;374;52.568;13.402;2023-12-20T07:26:59;7.70;;;4.40;;
781;SDS011;374;52.568;13.402;2023-12-20T07:29:25;7.73;;;4.20;;
781;SDS011;374;52.568;13.402;2023-12-20T07:31:50;8.53;;;3.43;;
781;SDS011;374;52.568;13.402;2023-12-20T07:34:17;6.63;;;4.07;;
781;SDS011;374;52.568;13.402;2023-12-20T07:36:43;4.83;;;3.40;;
781;SDS011;374;52.568;13.402;2023-12-20T07:39:08;6.37;;;4.10;;
781;SDS011;374;52.568;13.402;2023-12-20T07:41:34;5.60;;;3.60;;
781;SDS011;374;52.568;13.402;2023-12-20T07:43:59;6.20;;;4.20;;
781;SDS011;374;52.568;13.402;2023-12-20T07:46:25;10.57;;;4.67;;
781;SDS011;374;52.568;13.402;2023-12-20T07:48:50;8.40;;;4.60;;
781;SDS011;374;52.568;13.402;2023-12-20T07:51:16;6.10;;;3.77;;
781;SDS011;374;52.568;13.402;2023-12-20T07:53:42;5.67;;;3.03;;
781;SDS011;374;52.568;13.402;2023-12-20T07:56:14;5.60;;;3.53;;
781;SDS011;374;52.568;13.402;2023-12-20T07:58:40;14.93;;;3.93;;
781;SDS011;374;52.568;13.402;2023-12-20T08:01:06;14.23;;;3.50;;
781;SDS011;374;52.568;13.402;2023-12-20T08:03:31;6.60;;;2.63;;
781;SDS011;374;52.568;13.402;2023-12-20T08:05:57;6.03;;;3.67;;
781;SDS011;374;52.568;13.402;2023-12-20T08:08:24;5.20;;;3.00;;
781;SDS011;374;52.568;13.402;2023-12-20T08:10:50;7.30;;;4.00;;
781;SDS011;374;52.568;13.402;2023-12-20T08:13:15;5.87;;;3.20;;
781;SDS011;374;52.568;13.402;2023-12-20T08:15:40;8.23;;;3.07;;
781;SDS011;374;52.568;13.402;2023-12-20T08:18:06;9.90;;;3.17;;
781;SDS011;374;52.568;13.402;2023-12-20T08:20:31;8.93;;;3.33;;
781;SDS011;374;52.568;13.402;2023-12-20T08:22:57;10.87;;;5.13;;
781;SDS011;374;52.568;13.402;2023-12-20T08:25:22;6.10;;;3.50;;
781;SDS011;374;52.568;13.402;2023-12-20T08:27:48;11.27;;;4.00;;
781;SDS011;374;52.568;13.402;2023-12-20T08:30:13;3.90;;;2.90;;
781;SDS011;374;52.568;13.402;2023-12-20T08:32:39;7.57;;;4.00;;
781;SDS011;374;52.568;13.402;2023-12-20T08:35:05;8.70;;;4.30;;
781;SDS011;374;52.568;13.402;2023-12-20T08:37:31;8.60;;;3.27;;
781;SDS011;374;52.568;13.402;2023-12-20T08:39:57;18.30;;;4.10;;
781;SDS011;374;52.568;13.402;2023-12-20T08:42:22;5.60;;;2.93;;
781;SDS011;374;52.568;13.402;2023-12-20T08:44:49;5.40;;;3.77;;
781;SDS011;374;52.568;13.402;2023-12-20T08:47:15;7.30;;;3.30;;
781;SDS011;374;52.568;13.402;2023-12-20T08:49:41;4.77;;;2.97;;
781;SDS011;374;52.568;13.402;2023-12-20T08:52:06;7.90;;;4.17;;
781;SDS011;374;52.568;13.402;2023-12-20T08:54:32;8.43;;;3.47;;
781;SDS011;374;52.568;13.402;2023-12-20T08:56:57;7.93;;;4.70;;
781;SDS011;374;52.568;13.402;2023-12-20T08:59:23;9.97;;;3.80;;
781;SDS011;374;52.568;13.402;2023-12-20T09:01:48;10.87;;;3.50;;
781;SDS011;374;52.568;13.402;2023-12-20T09:04:22;9.70;;;3.87;;
781;SDS011;374;52.568;13.402;2023-12-20T09:06:47;9.63;;;4.37;;
781;SDS011;374;52.568;13.402;2023-12-20T09:09:15;7.83;;;3.50;;
781;SDS011;374;52.568;13.402;2023-12-20T09:11:41;6.70;;;2.90;;
781;SDS011;374;52.568;13.402;2023-12-20T09:14:07;10.03;;;3.20;;
781;SDS011;374;52.568;13.402;2023-12-20T09:16:32;6.10;;;2.93;;
781;SDS011;374;52.568;13.402;2023-12-20T09:18:58;8.10;;;4.63;;
781;SDS011;374;52.568;13.402;2023-12-20T09:21:24;8.27;;;3.40;;
781;SDS011;374;52.568;13.402;2023-12-20T09:23:49;11.53;;;4.87;;
781;SDS011;374;52.568;13.402;2023-12-20T09:26:15;4.83;;;3.33;;
781;SDS011;374;52.568;13.402;2023-12-20T09:28:40;9.87;;;3.53;;
781;SDS011;374;52.568;13.402;2023-12-20T09:31:06;7.17;;;3.40;;
781;SDS011;374;52.568;13.402;2023-12-20T09:33:32;6.70;;;3.37;;
781;SDS011;374;52.568;13.402;2023-12-20T09:35:58;8.70;;;4.00;;
781;SDS011;374;52.568;13.402;2023-12-20T09:38:23;10.23;;;3.90;;
781;SDS011;374;52.568;13.402;2023-12-20T09:40:49;15.13;;;3.87;;
781;SDS011;374;52.568;13.402;2023-12-20T09:43:15;8.23;;;4.23;;
781;SDS011;374;52.568;13.402;2023-12-20T09:45:46;8.03;;;4.20;;
781;SDS011;374;52.568;13.402;2023-12-20T09:48:17;5.40;;;3.13;;
781;SDS011;374;52.568;13.402;2023-12-20T09:50:44;11.03;;;4.07;;
781;SDS011;374;52.568;13.402;2023-12-20T09:53:09;9.57;;;4.70;;
781;SDS011;374;52.568;13.402;2023-12-20T09:55:39;12.97;;;4.10;;
781;SDS011;374;52.568;13.402;2023-12-20T09:58:06;10.20;;;4.27;;
781;SDS011;374;52.568;13.402;2023-12-20T10:00:33;11.00;;;3.60;;
781;SDS011;374;52.568;13.402;2023-12-20T10:03:02;8.67;;;3.67;;
781;SDS011;374;52.568;13.402;2023-12-20T10:05:31;9.50;;;3.77;;
781;SDS011;374;52.568;13.402;2023-12-20T10:07:58;8.63;;;6.27;;
781;SDS011;374;52.568;13.402;2023-12-20T10:10:24;6.70;;;4.10;;
781;SDS011;374;52.568;13.402;2023-12-20T10:13:07;8.77;;;3.77;;
781;SDS011;374;52.568;13.402;2023-12-20T10:15:36;7.33;;;3.77;;
781;SDS011;374;52.568;13.402;2023-12-20T10:18:02;8.00;;;3.70;;
781;SDS011;374;52.568;13.402;2023-12-20T10:20:29;9.07;;;4.00;;
781;SDS011;374;52.568;13.402;2023-12-20T10:22:56;6.83;;;2.90;;
781;SDS011;374;52.568;13.402;2023-12-20T10:25:25;8.00;;;4.20;;
781;SDS011;374;52.568;13.402;2023-12-20T10:28:08;13.60;;;4.30;;
781;SDS011;374;52.568;13.402;2023-12-20T10:30:35;11.23;;;3.60;;
781;SDS011;374;52.568;13.402;2023-12-20T10:33:00;11.53;;;4.30;;
781;SDS011;374;52.568;13.402;2023-12-20T10:35:26;7.73;;;4.17;;
781;SDS011;374;52.568;13.402;2023-12-20T10:37:52;9.03;;;4.33;;
781;SDS011;374;52.568;13.402;2023-12-20T10:40:21;7.80;;;4.00;;
781;SDS011;374;52.568;13.402;2023-12-20T10:42:47;18.93;;;4.57;;
781;SDS011;374;52.568;13.402;2023-12-20T10:45:15;7.77;;;3.90;;
781;SDS011;374;52.568;13.402;2023-12-20T10:47:42;11.87;;;5.10;;
781;SDS011;374;52.568;13.402;2023-12-20T10:50:11;10.47;;;4.60;;
781;SDS011;374;52.568;13.402;2023-12-20T10:52:36;12.20;;;4.00;;
781;SDS011;374;52.568;13.402;2023-12-20T10:55:03;8.47;;;4.20;;
781;SDS011;374;52.568;13.402;2023-12-20T10:57:30;5.60;;;4.40;;
781;SDS011;374;52.568;13.402;2023-12-20T10:59:55;10.30;;;6.10;;
781;SDS011;374;52.568;13.402;2023-12-20T11:02:24;12.90;;;4.70;;
781;SDS011;374;52.568;13.402;2023-12-20T11:04:55;10.23;;;3.97;;
781;SDS011;374;52.568;13.402;2023-12-20T11:07:35;7.57;;;4.47;;
781;SDS011;374;52.568;13.402;2023-12-20T11:12:47;4.70;;;3.57;;
781;SDS011;374;52.568;13.402;2023-12-20T11:15:17;6.23;;;3.70;;
781;SDS011;374;52.568;13.402;2023-12-20T11:17:46;11.70;;;5.20;;
781;SDS011;374;52.568;13.402;2023-12-20T11:20:19;7.70;;;4.10;;
781;SDS011;374;52.568;13.402;2023-12-20T11:22:53;13.00;;;4.37;;
781;SDS011;374;52.568;13.402;2023-12-20T11:25:19;18.93;;;8.53;;
781;SDS011;374;52.568;13.402;2023-12-20T11:27:47;15.37;;;8.57;;
781;SDS011;374;52.568;13.402;2023-12-20T11:30:40;8.30;;;4.83;;
781;SDS011;374;52.568;13.402;2023-12-20T11:33:10;9.63;;;5.37;;
781;SDS011;374;52.568;13.402;2023-12-20T11:35:35;9.50;;;6.17;;
781;SDS011;374;52.568;13.402;2023-12-20T11:38:02;11.80;;;5.73;;
781;SDS011;374;52.568;13.402;2023-12-20T11:40:27;14.33;;;7.30;;
781;SDS011;374;52.568;13.402;2023-12-20T11:42:53;11.93;;;4.37;;
781;SDS011;374;52.568;13.402;2023-12-20T11:45:23;11.60;;;5.50;;
781;SDS011;374;52.568;13.402;2023-12-20T11:47:50;7.10;;;3.90;;
781;SDS011;374;52.568;13.402;2023-12-20T11:50:17;6.73;;;4.53;;
781;SDS011;374;52.568;13.402;2023-12-20T11:52:43;11.00;;;4.63;;
781;SDS011;374;52.568;13.402;2023-12-20T11:55:09;12.40;;;4.80;;
781;SDS011;374;52.568;13.402;2023-12-20T11:57:35;9.70;;;4.97;;
781;SDS011;374;52.568;13.402;2023-12-20T12:00:04;6.47;;;4.33;;
781;SDS011;374;52.568;13.402;2023-12-20T12:02:31;12.70;;;6.80;;
781;SDS011;374;52.568;13.402;2023-12-20T12:04:56;11.50;;;7.17;;
781;SDS011;374;52.568;13.402;2023-12-20T12:07:23;7.50;;;4.53;;
781;SDS011;374;52.568;13.402;2023-12-20T12:09:49;12.30;;;4.57;;
781;SDS011;374;52.568;13.402;2023-12-20T12:12:15;10.07;;;4.30;;
781;SDS011;374;52.568;13.402;2023-12-20T12:14:41;6.90;;;3.70;;
781;SDS011;374;52.568;13.402;2023-12-20T12:17:13;18.40;;;4.20;;
781;SDS011;374;52.568;13.402;2023-12-20T12:19:40;5.90;;;4.00;;
781;SDS011;374;52.568;13.402;2023-12-20T12:22:06;9.20;;;5.07;;
781;SDS011;374;52.568;13.402;2023-12-20T12:24:41;6.30;;;4.00;;
781;SDS011;374;52.568;13.402;2023-12-20T12:27:09;4.47;;;3.67;;
781;SDS011;374;52.568;13.402;2023-12-20T12:29:36;12.40;;;4.10;;
781;SDS011;374;52.568;13.402;2023-12-20T12:32:08;5.90;;;3.80;;
781;SDS011;374;52.568;13.402;2023-12-20T12:34:35;8.50;;;5.00;;
781;SDS011;374;52.568;13.402;2023-12-20T12:37:01;12.07;;;4.17;;
781;SDS011;374;52.568;13.402;2023-12-20T12:39:28;4.93;;;3.87;;
781;SDS011;374;52.568;13.402;2023-12-20T12:41:54;4.40;;;3.27;;
781;SDS011;374;52.568;13.402;2023-12-20T12:44:20;8.10;;;4.30;;
781;SDS011;374;52.568;13.402;2023-12-20T12:46:48;12.17;;;5.27;;
781;SDS011;374;52.568;13.402;2023-12-20T12:49:18;8.77;;;4.10;;
781;SDS011;374;52.568;13.402;2023-12-20T12:51:44;11.00;;;4.97;;
781;SDS011;374;52.568;13.402;2023-12-20T12:54:10;13.50;;;4.83;;
781;SDS011;374;52.568;13.402;2023-12-20T12:56:37;9.67;;;4.57;;
781;SDS011;374;52.568;13.402;2023-12-20T12:59:03;7.70;;;4.90;;
781;SDS011;374;52.568;13.402;2023-12-20T13:01:30;5.60;;;3.90;;
781;SDS011;374;52.568;13.402;2023-12-20T13:03:56;10.27;;;4.50;;
781;SDS011;374;52.568;13.402;2023-12-20T13:06:21;4.50;;;4.10;;
781;SDS011;374;52.568;13.402;2023-12-20T13:08:47;13.23;;;5.13;;
781;SDS011;374;52.568;13.402;2023-12-20T13:11:12;5.50;;;4.57;;
781;SDS011;374;52.568;13.402;2023-12-20T13:13:38;10.93;;;5.00;;
781;SDS011;374;52.568;13.402;2023-12-20T13:16:03;10.17;;;4.20;;
781;SDS011;374;52.568;13.402;2023-12-20T13:18:29;9.77;;;5.23;;
781;SDS011;374;52.568;13.402;2023-12-20T13:20:55;19.07;;;6.80;;
781;SDS011;374;52.568;13.402;2023-12-20T13:23:20;8.23;;;5.00;;
781;SDS011;374;52.568;13.402;2023-12-20T13:25:46;9.00;;;4.43;;
781;SDS011;374;52.568;13.402;2023-12-20T13:28:11;9.73;;;4.73;;
781;SDS011;374;52.568;13.402;2023-12-20T13:30:37;9.37;;;3.53;;
781;SDS011;374;52.568;13.402;2023-12-20T13:33:03;2.90;;;2.40;;
781;SDS011;374;52.568;13.402;2023-12-20T13:35:30;4.67;;;2.10;;
781;SDS011;374;52.568;13.402;2023-12-20T13:37:55;6.57;;;2.47;;
781;SDS011;374;52.568;13.402;2023-12-20T13:40:21;6.53;;;2.37;;
781;SDS011;374;52.568;13.402;2023-12-20T13:42:46;4.97;;;2.70;;
781;SDS011;374;52.568;13.402;2023-12-20T13:45:13;4.00;;;1.70;;
781;SDS011;374;52.568;13.402;2023-12-20T13:47:38;3.17;;;2.00;;
781;SDS011;374;52.568;13.402;2023-12-20T13:50:04;5.17;;;1.90;;
781;SDS011;374;52.568;13.402;2023-12-20T13:52:30;2.77;;;2.20;;
781;SDS011;374;52.568;13.402;2023-12-20T13:54:55;2.30;;;2.10;;
781;SDS011;374;52.568;13.402;2023-12-20T13:57:21;1.73;;;1.63;;
781;SDS011;374;52.568;13.402;2023-12-20T13:59:47;2.93;;;1.70;;
781;SDS011;374;52.568;13.402;2023-12-20T14:02:12;4.10;;;2.10;;
781;SDS011;374;52.568;13.402;2023-12-20T14:04:47;1.60;;;1.27;;
781;SDS011;374;52.568;13.402;2023-12-20T14:07:13;2.70;;;2.50;;
781;SDS011;374;52.568;13.402;2023-12-20T14:09:38;3.47;;;2.00;;
781;SDS011;374;52.568;13.402;2023-12-20T14:12:10;2.80;;;2.00;;
781;SDS011;374;52.568;13.402;2023-12-20T14:14:35;6.93;;;2.13;;
781;SDS011;374;52.568;13.402;2023-12-20T14:17:01;3.47;;;2.47;;
781;SDS011;374;52.568;13.402;2023-12-20T14:19:26;2.03;;;1.83;;
781;SDS011;374;52.568;13.402;2023-12-20T14:21:52;3.13;;;2.00;;
781;SDS011;374;52.568;13.402;2023-12-20T14:24:17;2.07;;;1.90;;
781;SDS011;374;52.568;13.402;2023-12-20T14:26:43;2.90;;;2.10;;
781;SDS011;374;52.568;13.402;2023-12-20T14:29:08;2.40;;;1.53;;
781;SDS011;374;52.568;13.402;2023-12-20T14:31:34;2.10;;;1.63;;
781;SDS011;374;52.568;13.402;2023-12-20T14:34:00;2.10;;;1.60;;
781;SDS011;374;52.568;13.402;2023-12-20T14:36:28;4.60;;;2.20;;
781;SDS011;374;52.568;13.402;2023-12-20T14:38:55;2.07;;;1.87;;
781;SDS011;374;52.568;13.402;2023-12-20T14:41:21;2.40;;;1.50;;
781;SDS011;374;52.568;13.402;2023-12-20T14:43:49;7.03;;;3.33;;
781;SDS011;374;52.568;13.402;2023-12-20T14:46:16;3.30;;;1.77;;
781;SDS011;374;52.568;13.402;2023-12-20T14:48:42;3.60;;;1.60;;
781;SDS011;374;52.568;13.402;2023-12-20T14:51:07;2.33;;;1.43;;
781;SDS011;374;52.568;13.402;2023-12-20T14:53:33;1.30;;;1.20;;
781;SDS011;374;52.568;13.402;2023-12-20T14:56:01;3.33;;;1.93;;
781;SDS011;374;52.568;13.402;2023-12-20T14:58:27;4.00;;;2.00;;
781;SDS011;374;52.568;13.402;2023-12-20T15:00:54;5.03;;;2.13;;
781;SDS011;374;52.568;13.402;2023-12-20T15:03:21;4.10;;;2.03;;
781;SDS011;374;52.568;13.402;2023-12-20T15:05:46;4.10;;;2.00;;
781;SDS011;374;52.568;13.402;2023-12-20T15:08:12;2.30;;;2.00;;
781;SDS011;374;52.568;13.402;2023-12-20T15:10:38;4.87;;;2.37;;
781;SDS011;374;52.568;13.402;2023-12-20T15:13:04;2.00;;;1.70;;
781;SDS011;374;52.568;13.402;2023-12-20T15:15:29;2.47;;;2.07;;
781;SDS011;374;52.568;13.402;2023-12-20T15:17:57;4.33;;;3.97;;
781;SDS011;374;52.568;13.402;2023-12-20T15:20:22;3.10;;;2.27;;
781;SDS011;374;52.568;13.402;2023-12-20T15:22:48;1.90;;;1.80;;
781;SDS011;374;52.568;13.402;2023-12-20T15:25:13;3.70;;;2.10;;